Pure Adrenalin — VJD3680 — position and weather

sailwx.info

Track history (hours):
 
Tides and Currents Weather Stations Pressure Air Temp Water Temp Dewpoint Dewpoint Depression Visibility Wind Speed Wind Dir Waves Ship Positions

Pure Adrenalin

Last reported at 2018-May-09 22:37 UTC. Time now 2018-May-21 07:20 UTC.
Position S 20°27' E 117°26'.
Warning: this ship's position is 11 days out of date.

Length 21 m.

Type: Ship. MMSI: 503642100.

Date/timePositionNaut miles runAvg speedWind from/ knotsBaromVisibWave heightAir tempDewpointWater temp
2018-May-09 22:37S 20°27' E 117°26'1 5.8
2018-May-09 22:29S 20°26' E 117°26'0 0.7
2018-May-09 21:58S 20°26' E 117°26'0 0.4
2018-May-09 21:29S 20°26' E 117°26'0 0.4
2018-May-09 20:56S 20°26' E 117°26'0 0.0
2018-May-09 19:23S 20°25' E 117°26'1 0.1
2018-May-09 15:16S 20°26' E 117°26'1 2.4
2018-May-09 14:52S 20°27' E 117°26'0 1.0
2018-May-09 14:25S 20°26' E 117°26'0 0.4
2018-May-09 13:58S 20°27' E 117°26'1 1.2
2018-May-09 13:23S 20°26' E 117°26'0 0.4
2018-May-09 13:00S 20°26' E 117°26'2 3.7
2018-May-09 12:30S 20°28' E 117°25'3 5.3
2018-May-09 12:00S 20°25' E 117°26'3 3.6
2018-May-09 11:16S 20°28' E 117°25'311.2
2018-May-09 10:58S 20°30' E 117°22'12 1.1
2018-May-09 00:27S 20°35' E 117°11'1 2.6
2018-May-09 00:00S 20°34' E 117°12'0 0.2
2018-May-08 23:29S 20°34' E 117°12'15 1.4
2018-May-08 13:00S 20°25' E 117°24'0 0.4
2018-May-08 12:25S 20°25' E 117°24'0 0.1
2018-May-08 12:00S 20°25' E 117°24'2 3.4
2018-May-08 11:25S 20°27' E 117°23'5 6.5
2018-May-08 10:38S 20°29' E 117°18'215.2
2018-May-08 10:31S 20°28' E 117°20'812.7
2018-May-08 09:52S 20°23' E 117°27'0 0.1
2018-May-08 09:12S 20°23' E 117°27'1 1.7
2018-May-08 08:45S 20°24' E 117°26'0 0.6
2018-May-08 08:14S 20°24' E 117°27'1 4.5
2018-May-08 07:55S 20°25' E 117°26'2 1.7
2018-May-08 06:44S 20°27' E 117°26'0 0.6
2018-May-08 06:19S 20°27' E 117°26'0 0.3
2018-May-08 05:57S 20°27' E 117°26'0 0.1
2018-May-08 05:30S 20°27' E 117°26'2 3.6
2018-May-08 04:58S 20°25' E 117°26'3 4.6
2018-May-08 04:24S 20°23' E 117°27'1 3.0
2018-May-08 03:57S 20°24' E 117°27'3 5.5
2018-May-08 03:28S 20°27' E 117°27'0 0.3
2018-May-08 02:02S 20°27' E 117°26'0 6.2
2018-May-08 01:59S 20°27' E 117°27'1 0.3
2018-May-07 22:45S 20°27' E 117°26'3 2.4
2018-May-07 21:39S 20°29' E 117°24'3 9.9
2018-May-07 21:22S 20°27' E 117°26'2 6.2
2018-May-07 20:59S 20°25' E 117°27'2 0.2
2018-May-07 12:37S 20°23' E 117°27'0 0.5
2018-May-07 12:27S 20°23' E 117°27'2 4.2
2018-May-07 11:53S 20°25' E 117°26'3 3.5
2018-May-07 11:08S 20°28' E 117°26'315.6
2018-May-07 10:57S 20°29' E 117°23'14 7.3
2018-May-07 09:05S 20°36' E 117°10'3 5.2
2018-May-07 08:30S 20°33' E 117°12'917.2
2018-May-07 07:59S 20°28' E 117°20'5 7.8
2018-May-07 07:21S 20°25' E 117°24'0 0.3
2018-May-07 06:50S 20°25' E 117°24'0 0.0
2018-May-07 00:10S 20°25' E 117°24'213.1
2018-May-06 23:59S 20°26' E 117°22'915.8
2018-May-06 23:25S 20°32' E 117°14'11 1.3
2018-May-06 15:29S 20°28' E 117°25'1 0.4
2018-May-06 14:17S 20°28' E 117°24'0 0.3
2018-May-06 13:20S 20°28' E 117°25'1 2.5
2018-May-06 12:55S 20°28' E 117°24'0 0.1
2018-May-06 12:26S 20°28' E 117°24'1 2.6
2018-May-06 11:58S 20°28' E 117°25'3 3.5
2018-May-06 11:09S 20°28' E 117°22'511.9
2018-May-06 10:45S 20°32' E 117°18'414.6
2018-May-06 10:29S 20°34' E 117°15'3 2.3
2018-May-06 09:14S 20°34' E 117°12'13 3.1
2018-May-06 05:04S 20°28' E 117°24'2 0.7
2018-May-06 01:38S 20°28' E 117°22'12 2.1
2018-May-05 19:58S 20°35' E 117°11'1 1.0
2018-May-05 19:21S 20°34' E 117°12'0 0.1
2018-May-05 18:51S 20°34' E 117°12'0 0.1
2018-May-05 18:30S 20°34' E 117°12'0 0.1
2018-May-05 17:53S 20°34' E 117°12'0 0.8
2018-May-05 17:30S 20°34' E 117°11'1 0.8
2018-May-05 16:54S 20°34' E 117°12'0 0.4
2018-May-05 16:19S 20°34' E 117°12'2 0.3
2018-May-05 11:24S 20°33' E 117°13'1 0.8
2018-May-05 10:34S 20°34' E 117°13'1 1.0
2018-May-05 09:31S 20°34' E 117°12'1 5.6
2018-May-05 09:20S 20°33' E 117°12'0 0.3
2018-May-05 08:52S 20°34' E 117°12'0 0.4
2018-May-05 08:30S 20°33' E 117°13'0 0.6
2018-May-05 07:56S 20°34' E 117°12'0 0.3
2018-May-05 07:15S 20°34' E 117°12'1 1.8
2018-May-05 06:58S 20°33' E 117°13'0 0.9
2018-May-05 06:29S 20°33' E 117°13'0 0.3
2018-May-05 05:56S 20°33' E 117°13'1 2.6
2018-May-05 05:28S 20°34' E 117°12'0 0.0
2018-May-04 18:03S 20°34' E 117°12'1 0.8
2018-May-04 17:02S 20°33' E 117°13'3 0.3
2018-May-04 07:34S 20°35' E 117°11'0 4.4
2018-May-04 07:30S 20°35' E 117°11'1 0.2
2018-May-04 04:06S 20°36' E 117°10'0 0.1
2018-May-04 04:00S 20°36' E 117°10'1 0.3
2018-May-04 00:05S 20°35' E 117°11'0 0.2
2018-May-03 21:22S 20°35' E 117°11'0 0.1
2018-May-03 20:41S 20°34' E 117°11'0 0.7
2018-May-03 20:30S 20°34' E 117°12'0 0.3
2018-May-03 19:57S 20°35' E 117°11'0 0.5
2018-May-03 19:28S 20°34' E 117°12'0 0.1
2018-May-03 18:24S 20°34' E 117°11'0 0.2
2018-May-03 16:31S 20°35' E 117°11'0 3.4
2018-May-03 16:25S 20°35' E 117°11'0 0.8
2018-May-03 15:51S 20°35' E 117°11'1 2.4
2018-May-03 15:30S 20°35' E 117°11'0 0.5
2018-May-03 15:00S 20°35' E 117°11'0 0.6
2018-May-03 14:30S 20°35' E 117°11'0 0.1
2018-May-03 13:55S 20°35' E 117°11'1 0.6
2018-May-03 11:55S 20°34' E 117°12'0 0.6
2018-May-03 11:27S 20°34' E 117°12'0 0.3
2018-May-03 10:42S 20°34' E 117°12'0 0.3
2018-May-03 10:14S 20°34' E 117°12'1 3.3
2018-May-03 09:57S 20°35' E 117°12'0 0.6
2018-May-03 09:27S 20°35' E 117°12'1 1.4
2018-May-03 08:56S 20°34' E 117°12'0 0.1
2018-May-03 08:27S 20°34' E 117°12'1 1.4
2018-May-03 07:59S 20°34' E 117°13'0 0.3
2018-May-03 07:22S 20°34' E 117°13'1 2.8
2018-May-03 06:58S 20°35' E 117°12'2 1.0
2018-May-03 05:24S 20°35' E 117°11'0 0.1
2018-May-03 04:53S 20°35' E 117°11'0 0.6
2018-May-03 04:19S 20°35' E 117°11'0 0.1
2018-May-03 02:45S 20°35' E 117°11'1 0.5
2018-May-03 01:42S 20°35' E 117°11'1 1.3
2018-May-03 01:16S 20°35' E 117°12'3 0.8
2018-May-02 21:13S 20°31' E 117°13'2 1.3
2018-May-02 19:20S 20°34' E 117°13'0 0.8
2018-May-02 18:50S 20°34' E 117°13'0 0.1
2018-May-02 18:18S 20°34' E 117°13'0 0.7
2018-May-02 17:45S 20°34' E 117°13'1 1.5
2018-May-02 16:53S 20°35' E 117°12'0 0.2
2018-May-02 16:13S 20°35' E 117°12'0 1.2
2018-May-02 16:00S 20°35' E 117°12'1 1.9
2018-May-02 15:27S 20°35' E 117°11'1 1.8
2018-May-02 14:48S 20°35' E 117°12'0 0.4
2018-May-02 14:18S 20°34' E 117°12'0 0.8
2018-May-02 13:56S 20°34' E 117°13'0 0.2
2018-May-02 13:00S 20°34' E 117°13'1 0.2
2018-May-02 09:32S 20°35' E 117°12'3 1.0
2018-May-02 06:06S 20°31' E 117°13'0 0.3
2018-May-02 05:55S 20°31' E 117°13'0 0.2
2018-May-02 04:37S 20°32' E 117°13'0 1.6
2018-May-02 04:20S 20°31' E 117°13'0 0.6
2018-May-02 03:48S 20°31' E 117°13'0 0.1
2018-May-02 03:22S 20°31' E 117°13'3 6.5
2018-May-02 02:58S 20°34' E 117°12'2 3.1
2018-May-02 02:29S 20°35' E 117°11'1 0.5
2018-May-02 00:42S 20°35' E 117°12'0 0.6
2018-May-02 00:06S 20°35' E 117°12'0 0.4
2018-May-01 23:56S 20°35' E 117°12'0 1.1
2018-May-01 23:28S 20°35' E 117°11'0 0.1
2018-May-01 22:46S 20°35' E 117°11'0 1.2
2018-May-01 22:27S 20°35' E 117°11'1 0.8
2018-May-01 21:35S 20°35' E 117°12'1 0.0
2018-Apr-30 11:23S 20°34' E 117°13'  
Track history (hours):
 
Tides and Currents Weather Stations Pressure Air Temp Water Temp Dewpoint Dewpoint Depression Visibility Wind Speed Wind Dir Waves Ship Positions

Pure Adrenalin

Last reported at 2018-May-09 22:37 UTC. Time now 2018-May-21 07:20 UTC.
Position S 20°27' E 117°26'.
Warning: this ship's position is 11 days out of date.

Length 21 m.

Type: Ship. MMSI: 503642100.

Date/timePositionNaut miles runAvg speedWind from/ knotsBaromVisibWave heightAir tempDewpointWater temp
2018-May-09 22:37S 20°27' E 117°26'1 5.8
2018-May-09 22:29S 20°26' E 117°26'0 0.7
2018-May-09 21:58S 20°26' E 117°26'0 0.4
2018-May-09 21:29S 20°26' E 117°26'0 0.4
2018-May-09 20:56S 20°26' E 117°26'0 0.0
2018-May-09 19:23S 20°25' E 117°26'1 0.1
2018-May-09 15:16S 20°26' E 117°26'1 2.4
2018-May-09 14:52S 20°27' E 117°26'0 1.0
2018-May-09 14:25S 20°26' E 117°26'0 0.4
2018-May-09 13:58S 20°27' E 117°26'1 1.2
2018-May-09 13:23S 20°26' E 117°26'0 0.4
2018-May-09 13:00S 20°26' E 117°26'2 3.7
2018-May-09 12:30S 20°28' E 117°25'3 5.3
2018-May-09 12:00S 20°25' E 117°26'3 3.6
2018-May-09 11:16S 20°28' E 117°25'311.2
2018-May-09 10:58S 20°30' E 117°22'12 1.1
2018-May-09 00:27S 20°35' E 117°11'1 2.6
2018-May-09 00:00S 20°34' E 117°12'0 0.2
2018-May-08 23:29S 20°34' E 117°12'15 1.4
2018-May-08 13:00S 20°25' E 117°24'0 0.4
2018-May-08 12:25S 20°25' E 117°24'0 0.1
2018-May-08 12:00S 20°25' E 117°24'2 3.4
2018-May-08 11:25S 20°27' E 117°23'5 6.5
2018-May-08 10:38S 20°29' E 117°18'215.2
2018-May-08 10:31S 20°28' E 117°20'812.7
2018-May-08 09:52S 20°23' E 117°27'0 0.1
2018-May-08 09:12S 20°23' E 117°27'1 1.7
2018-May-08 08:45S 20°24' E 117°26'0 0.6
2018-May-08 08:14S 20°24' E 117°27'1 4.5
2018-May-08 07:55S 20°25' E 117°26'2 1.7
2018-May-08 06:44S 20°27' E 117°26'0 0.6
2018-May-08 06:19S 20°27' E 117°26'0 0.3
2018-May-08 05:57S 20°27' E 117°26'0 0.1
2018-May-08 05:30S 20°27' E 117°26'2 3.6
2018-May-08 04:58S 20°25' E 117°26'3 4.6
2018-May-08 04:24S 20°23' E 117°27'1 3.0
2018-May-08 03:57S 20°24' E 117°27'3 5.5
2018-May-08 03:28S 20°27' E 117°27'0 0.3
2018-May-08 02:02S 20°27' E 117°26'0 6.2
2018-May-08 01:59S 20°27' E 117°27'1 0.3
2018-May-07 22:45S 20°27' E 117°26'3 2.4
2018-May-07 21:39S 20°29' E 117°24'3 9.9
2018-May-07 21:22S 20°27' E 117°26'2 6.2
2018-May-07 20:59S 20°25' E 117°27'2 0.2
2018-May-07 12:37S 20°23' E 117°27'0 0.5
2018-May-07 12:27S 20°23' E 117°27'2 4.2
2018-May-07 11:53S 20°25' E 117°26'3 3.5
2018-May-07 11:08S 20°28' E 117°26'315.6
2018-May-07 10:57S 20°29' E 117°23'14 7.3
2018-May-07 09:05S 20°36' E 117°10'3 5.2
2018-May-07 08:30S 20°33' E 117°12'917.2
2018-May-07 07:59S 20°28' E 117°20'5 7.8
2018-May-07 07:21S 20°25' E 117°24'0 0.3
2018-May-07 06:50S 20°25' E 117°24'0 0.0
2018-May-07 00:10S 20°25' E 117°24'213.1
2018-May-06 23:59S 20°26' E 117°22'915.8
2018-May-06 23:25S 20°32' E 117°14'11 1.3
2018-May-06 15:29S 20°28' E 117°25'1 0.4
2018-May-06 14:17S 20°28' E 117°24'0 0.3
2018-May-06 13:20S 20°28' E 117°25'1 2.5
2018-May-06 12:55S 20°28' E 117°24'0 0.1
2018-May-06 12:26S 20°28' E 117°24'1 2.6
2018-May-06 11:58S 20°28' E 117°25'3 3.5
2018-May-06 11:09S 20°28' E 117°22'511.9
2018-May-06 10:45S 20°32' E 117°18'414.6
2018-May-06 10:29S 20°34' E 117°15'3 2.3
2018-May-06 09:14S 20°34' E 117°12'13 3.1
2018-May-06 05:04S 20°28' E 117°24'2 0.7
2018-May-06 01:38S 20°28' E 117°22'12 2.1
2018-May-05 19:58S 20°35' E 117°11'1 1.0
2018-May-05 19:21S 20°34' E 117°12'0 0.1
2018-May-05 18:51S 20°34' E 117°12'0 0.1
2018-May-05 18:30S 20°34' E 117°12'0 0.1
2018-May-05 17:53S 20°34' E 117°12'0 0.8
2018-May-05 17:30S 20°34' E 117°11'1 0.8
2018-May-05 16:54S 20°34' E 117°12'0 0.4
2018-May-05 16:19S 20°34' E 117°12'2 0.3
2018-May-05 11:24S 20°33' E 117°13'1 0.8
2018-May-05 10:34S 20°34' E 117°13'1 1.0
2018-May-05 09:31S 20°34' E 117°12'1 5.6
2018-May-05 09:20S 20°33' E 117°12'0 0.3
2018-May-05 08:52S 20°34' E 117°12'0 0.4
2018-May-05 08:30S 20°33' E 117°13'0 0.6
2018-May-05 07:56S 20°34' E 117°12'0 0.3
2018-May-05 07:15S 20°34' E 117°12'1 1.8
2018-May-05 06:58S 20°33' E 117°13'0 0.9
2018-May-05 06:29S 20°33' E 117°13'0 0.3
2018-May-05 05:56S 20°33' E 117°13'1 2.6
2018-May-05 05:28S 20°34' E 117°12'0 0.0
2018-May-04 18:03S 20°34' E 117°12'1 0.8
2018-May-04 17:02S 20°33' E 117°13'3 0.3
2018-May-04 07:34S 20°35' E 117°11'0 4.4
2018-May-04 07:30S 20°35' E 117°11'1 0.2
2018-May-04 04:06S 20°36' E 117°10'0 0.1
2018-May-04 04:00S 20°36' E 117°10'1 0.3
2018-May-04 00:05S 20°35' E 117°11'0 0.2
2018-May-03 21:22S 20°35' E 117°11'0 0.1
2018-May-03 20:41S 20°34' E 117°11'0 0.7
2018-May-03 20:30S 20°34' E 117°12'0 0.3
2018-May-03 19:57S 20°35' E 117°11'0 0.5
2018-May-03 19:28S 20°34' E 117°12'0 0.1
2018-May-03 18:24S 20°34' E 117°11'0 0.2
2018-May-03 16:31S 20°35' E 117°11'0 3.4
2018-May-03 16:25S 20°35' E 117°11'0 0.8
2018-May-03 15:51S 20°35' E 117°11'1 2.4
2018-May-03 15:30S 20°35' E 117°11'0 0.5
2018-May-03 15:00S 20°35' E 117°11'0 0.6
2018-May-03 14:30S 20°35' E 117°11'0 0.1
2018-May-03 13:55S 20°35' E 117°11'1 0.6
2018-May-03 11:55S 20°34' E 117°12'0 0.6
2018-May-03 11:27S 20°34' E 117°12'0 0.3
2018-May-03 10:42S 20°34' E 117°12'0 0.3
2018-May-03 10:14S 20°34' E 117°12'1 3.3
2018-May-03 09:57S 20°35' E 117°12'0 0.6
2018-May-03 09:27S 20°35' E 117°12'1 1.4
2018-May-03 08:56S 20°34' E 117°12'0 0.1
2018-May-03 08:27S 20°34' E 117°12'1 1.4
2018-May-03 07:59S 20°34' E 117°13'0 0.3
2018-May-03 07:22S 20°34' E 117°13'1 2.8
2018-May-03 06:58S 20°35' E 117°12'2 1.0
2018-May-03 05:24S 20°35' E 117°11'0 0.1
2018-May-03 04:53S 20°35' E 117°11'0 0.6
2018-May-03 04:19S 20°35' E 117°11'0 0.1
2018-May-03 02:45S 20°35' E 117°11'1 0.5
2018-May-03 01:42S 20°35' E 117°11'1 1.3
2018-May-03 01:16S 20°35' E 117°12'3 0.8
2018-May-02 21:13S 20°31' E 117°13'2 1.3
2018-May-02 19:20S 20°34' E 117°13'0 0.8
2018-May-02 18:50S 20°34' E 117°13'0 0.1
2018-May-02 18:18S 20°34' E 117°13'0 0.7
2018-May-02 17:45S 20°34' E 117°13'1 1.5
2018-May-02 16:53S 20°35' E 117°12'0 0.2
2018-May-02 16:13S 20°35' E 117°12'0 1.2
2018-May-02 16:00S 20°35' E 117°12'1 1.9
2018-May-02 15:27S 20°35' E 117°11'1 1.8
2018-May-02 14:48S 20°35' E 117°12'0 0.4
2018-May-02 14:18S 20°34' E 117°12'0 0.8
2018-May-02 13:56S 20°34' E 117°13'0 0.2
2018-May-02 13:00S 20°34' E 117°13'1 0.2
2018-May-02 09:32S 20°35' E 117°12'3 1.0
2018-May-02 06:06S 20°31' E 117°13'0 0.3
2018-May-02 05:55S 20°31' E 117°13'0 0.2
2018-May-02 04:37S 20°32' E 117°13'0 1.6
2018-May-02 04:20S 20°31' E 117°13'0 0.6
2018-May-02 03:48S 20°31' E 117°13'0 0.1
2018-May-02 03:22S 20°31' E 117°13'3 6.5
2018-May-02 02:58S 20°34' E 117°12'2 3.1
2018-May-02 02:29S 20°35' E 117°11'1 0.5
2018-May-02 00:42S 20°35' E 117°12'0 0.6
2018-May-02 00:06S 20°35' E 117°12'0 0.4
2018-May-01 23:56S 20°35' E 117°12'0 1.1
2018-May-01 23:28S 20°35' E 117°11'0 0.1
2018-May-01 22:46S 20°35' E 117°11'0 1.2
2018-May-01 22:27S 20°35' E 117°11'1 0.8
2018-May-01 21:35S 20°35' E 117°12'1 0.0
2018-Apr-30 11:23S 20°34' E 117°13'  

Dump ship's entire track history